Time;durP1;ratioP1;P1;durP2;ratioP2;P2;SDS_P1;SDS_P2;PMS_P1;PMS_P2;Temp;Humidity;BMP_temperature;BMP_pressure;BME280_temperature;BME280_humidity;BME280_pressure;Samples;Min_cycle;Max_cycle;Signal;HPM_P1;HPM_P2
2023/07/24 00:02:37;;;;;;;3.03;1.75;;;19.10;99.90;;;;;;5051729;28;20051;-75
2023/07/24 00:05:23;;;;;;;4.20;2.28;;;19.20;99.90;;;;;;5035328;28;20128;-74
2023/07/24 00:08:14;;;;;;;4.07;2.40;;;19.10;99.90;;;;;;5058049;28;20113;-75
2023/07/24 00:11:18;;;;;;;5.68;2.55;;;19.10;99.90;;;;;;5055314;28;20605;-75
2023/07/24 00:14:14;;;;;;;3.33;2.30;;;19.10;99.90;;;;;;5039509;28;20033;-75
2023/07/24 00:17:08;;;;;;;4.68;2.35;;;19.20;99.90;;;;;;5054424;28;20036;-74
2023/07/24 00:20:14;;;;;;;4.90;2.53;;;19.20;99.90;;;;;;5043014;28;20033;-74
2023/07/24 00:23:03;;;;;;;8.70;3.55;;;19.20;99.90;;;;;;5015103;28;20045;-75
2023/07/24 00:25:55;;;;;;;4.85;2.53;;;19.30;99.90;;;;;;5025767;28;20044;-75
2023/07/24 00:28:46;;;;;;;5.65;2.55;;;19.20;99.90;;;;;;5022449;28;20422;-75
2023/07/24 00:31:52;;;;;;;5.32;2.20;;;19.20;99.90;;;;;;5036308;28;20040;-74
2023/07/24 00:34:40;;;;;;;3.88;2.10;;;19.20;99.90;;;;;;4981838;28;20845;-75
2023/07/24 00:37:29;;;;;;;3.72;2.00;;;19.20;99.90;;;;;;5006311;28;20450;-75
2023/07/24 00:40:19;;;;;;;2.92;1.80;;;19.20;99.90;;;;;;5014444;28;20040;-75
2023/07/24 00:43:05;;;;;;;4.82;1.60;;;19.20;99.90;;;;;;5040060;28;20377;-75
2023/07/24 00:45:53;;;;;;;3.40;1.75;;;19.20;99.90;;;;;;5043315;28;20033;-75
2023/07/24 00:48:39;;;;;;;;;;;19.20;99.90;;;;;;5023013;28;20068;-75
2023/07/24 00:51:29;;;;;;;4.15;1.60;;;19.20;99.90;;;;;;5045429;28;19913;-75
2023/07/24 00:54:23;;;;;;;2.50;1.40;;;19.10;99.90;;;;;;5023839;28;20389;-75
2023/07/24 00:57:11;;;;;;;3.50;1.40;;;19.20;99.90;;;;;;5041382;28;20507;-75
2023/07/24 01:00:21;;;;;;;2.95;1.35;;;19.20;99.90;;;;;;5025481;28;20040;-75
2023/07/24 01:03:12;;;;;;;3.20;1.42;;;19.10;99.90;;;;;;5051147;28;20060;-75
2023/07/24 01:06:01;;;;;;;2.53;1.60;;;19.10;99.90;;;;;;5019950;28;20043;-75
2023/07/24 01:09:10;;;;;;;1.65;1.20;;;19.20;99.90;;;;;;5011744;28;20465;-74
2023/07/24 01:12:10;;;;;;;1.90;1.30;;;19.10;99.90;;;;;;5037018;28;20549;-75
2023/07/24 01:15:12;;;;;;;1.75;1.17;;;19.10;99.90;;;;;;5033956;28;20084;-74
2023/07/24 01:18:03;;;;;;;3.08;1.35;;;19.00;99.90;;;;;;5033110;28;20035;-75
2023/07/24 01:20:57;;;;;;;2.70;1.38;;;19.00;99.90;;;;;;5043849;28;20654;-75
2023/07/24 01:24:28;;;;;;;2.00;1.20;;;19.00;99.90;;;;;;5025401;28;20155;-74
2023/07/24 01:27:48;;;;;;;3.63;1.50;;;19.00;99.90;;;;;;5042201;28;20804;-74
2023/07/24 01:30:36;;;;;;;2.67;1.60;;;19.00;99.90;;;;;;5028305;28;20047;-75
2023/07/24 01:33:43;;;;;;;2.05;1.15;;;19.00;99.90;;;;;;5061119;28;20047;-75
2023/07/24 01:36:34;;;;;;;3.22;1.10;;;19.00;99.90;;;;;;5032050;28;20469;-74
2023/07/24 01:39:25;;;;;;;3.28;1.30;;;19.00;99.90;;;;;;5036009;28;20048;-75
2023/07/24 01:42:14;;;;;;;2.05;1.27;;;18.90;99.90;;;;;;5017324;28;20148;-75
2023/07/24 01:45:15;;;;;;;2.65;1.40;;;18.90;99.90;;;;;;5039097;28;20674;-75
2023/07/24 01:48:04;;;;;;;2.63;1.35;;;18.90;99.90;;;;;;5038759;28;20416;-74
2023/07/24 01:50:56;;;;;;;3.45;1.42;;;18.90;99.90;;;;;;5039933;28;20067;-75
2023/07/24 01:53:56;;;;;;;2.30;1.40;;;18.80;99.90;;;;;;5019892;28;20052;-75
2023/07/24 01:56:47;;;;;;;2.05;1.20;;;18.80;99.90;;;;;;5056960;28;20036;-75
2023/07/24 02:00:00;;;;;;;2.65;1.20;;;18.90;99.90;;;;;;5057759;28;20040;-74
2023/07/24 02:02:45;;;;;;;1.67;1.30;;;18.90;99.90;;;;;;5041972;28;20110;-74
2023/07/24 02:05:37;;;;;;;2.40;1.30;;;18.90;99.90;;;;;;5025085;28;20437;-75
2023/07/24 02:08:30;;;;;;;2.33;1.35;;;18.90;99.90;;;;;;5006526;28;20076;-75
2023/07/24 02:11:22;;;;;;;1.90;1.33;;;18.90;99.90;;;;;;5021593;28;20045;-75
2023/07/24 02:14:14;;;;;;;2.72;1.13;;;18.90;99.90;;;;;;5036145;28;20051;-75
2023/07/24 02:17:23;;;;;;;3.83;1.38;;;18.90;99.90;;;;;;5005722;28;20049;-75
2023/07/24 02:20:09;;;;;;;2.75;1.70;;;18.90;99.90;;;;;;5050760;28;20500;-74
2023/07/24 02:23:08;;;;;;;2.55;1.40;;;18.90;99.90;;;;;;5009367;28;20049;-75
2023/07/24 02:25:57;;;;;;;2.38;1.60;;;19.00;99.90;;;;;;5024219;28;20054;-75
2023/07/24 02:28:48;;;;;;;1.92;1.40;;;19.00;99.90;;;;;;4991524;28;20040;-75
2023/07/24 02:31:34;;;;;;;2.20;1.67;;;19.00;99.90;;;;;;5044817;28;20120;-75
2023/07/24 02:34:24;;;;;;;4.07;1.77;;;19.00;99.90;;;;;;5035501;28;20307;-75
2023/07/24 02:37:33;;;;;;;2.80;1.75;;;19.00;99.90;;;;;;5031689;28;20100;-75
2023/07/24 02:40:22;;;;;;;1.95;1.38;;;19.00;99.90;;;;;;5040496;28;20072;-74
2023/07/24 02:43:19;;;;;;;2.50;1.50;;;18.90;99.90;;;;;;5036224;28;20075;-74
2023/07/24 02:46:11;;;;;;;2.83;1.50;;;18.90;99.90;;;;;;5023786;28;20033;-74
2023/07/24 02:48:59;;;;;;;3.83;1.65;;;19.00;99.90;;;;;;5042434;28;20037;-75
2023/07/24 02:51:59;;;;;;;2.83;1.30;;;19.00;99.90;;;;;;5012652;28;20519;-74
2023/07/24 02:54:56;;;;;;;2.40;1.40;;;19.00;99.90;;;;;;5049940;28;20063;-75
2023/07/24 02:58:04;;;;;;;3.10;1.70;;;19.00;99.90;;;;;;5026717;28;20114;-74
2023/07/24 03:01:18;;;;;;;3.30;1.80;;;19.00;99.90;;;;;;5030362;28;20064;-75
2023/07/24 03:04:06;;;;;;;3.92;1.80;;;19.10;99.90;;;;;;5032094;28;20051;-75
2023/07/24 03:07:08;;;;;;;4.95;1.90;;;19.00;99.90;;;;;;5050216;28;20115;-75
2023/07/24 03:09:59;;;;;;;5.82;2.28;;;19.10;99.90;;;;;;5031617;28;20040;-75
2023/07/24 03:12:54;;;;;;;3.88;1.73;;;19.10;99.90;;;;;;5041483;28;20084;-75
2023/07/24 03:15:40;;;;;;;4.97;2.10;;;19.10;99.90;;;;;;5019639;28;20140;-75
2023/07/24 03:21:51;;;;;;;3.00;2.05;;;19.10;99.90;;;;;;5025804;28;20056;-75
2023/07/24 03:24:40;;;;;;;4.63;2.40;;;19.20;99.90;;;;;;5017540;28;20041;-75
2023/07/24 03:27:40;;;;;;;5.43;2.25;;;19.10;99.90;;;;;;5008419;28;20038;-75
2023/07/24 03:30:46;;;;;;;5.97;3.20;;;19.00;99.90;;;;;;5031055;28;20037;-74
2023/07/24 03:33:32;;;;;;;7.57;2.80;;;19.00;99.90;;;;;;5023725;28;20040;-75
2023/07/24 03:36:21;;;;;;;4.85;2.80;;;19.10;99.90;;;;;;5048969;28;20040;-75
2023/07/24 03:39:15;;;;;;;7.18;2.92;;;19.10;99.90;;;;;;5054551;28;20333;-75
2023/07/24 03:42:02;;;;;;;5.40;2.90;;;19.10;99.90;;;;;;5039227;28;20041;-75
2023/07/24 03:44:50;;;;;;;4.85;2.70;;;19.20;99.90;;;;;;5038307;28;20033;-76
2023/07/24 03:47:38;;;;;;;4.10;2.33;;;19.20;99.90;;;;;;5037485;28;20045;-75
2023/07/24 03:50:32;;;;;;;4.45;2.00;;;19.20;99.90;;;;;;5043378;28;20680;-75
2023/07/24 03:53:30;;;;;;;4.43;2.13;;;19.10;99.90;;;;;;5021439;28;20095;-74
2023/07/24 03:56:23;;;;;;;5.70;1.75;;;19.00;99.90;;;;;;5050819;28;20049;-75
2023/07/24 03:59:32;;;;;;;5.28;1.80;;;19.10;99.90;;;;;;5015939;28;20064;-75
2023/07/24 04:02:21;;;;;;;3.58;1.73;;;19.10;99.90;;;;;;4996237;28;20046;-75
2023/07/24 04:05:07;;;;;;;2.95;1.63;;;19.10;99.90;;;;;;4985689;28;20350;-75
2023/07/24 04:07:58;;;;;;;2.55;1.65;;;19.20;99.90;;;;;;5016224;28;20182;-76
2023/07/24 04:10:46;;;;;;;3.20;1.48;;;19.20;99.90;;;;;;5014393;28;20469;-75
2023/07/24 04:13:44;;;;;;;4.20;1.70;;;19.10;99.90;;;;;;5025953;28;20048;-75
2023/07/24 04:16:43;;;;;;;2.38;1.58;;;19.10;99.90;;;;;;5052421;28;20040;-75
2023/07/24 04:19:30;;;;;;;3.58;1.70;;;19.10;99.90;;;;;;5020824;28;20046;-75
2023/07/24 04:22:42;;;;;;;4.97;1.80;;;19.10;99.90;;;;;;5021086;28;20041;-75
2023/07/24 04:25:28;;;;;;;2.38;1.65;;;19.20;99.90;;;;;;5055252;28;20051;-75
2023/07/24 04:28:17;;;;;;;2.55;1.80;;;19.20;99.90;;;;;;4992182;28;20115;-75
2023/07/24 04:31:05;;;;;;;2.65;1.58;;;19.20;99.90;;;;;;5019044;28;20369;-76
2023/07/24 04:33:53;;;;;;;;;;;19.20;99.90;;;;;;5020172;28;20492;-75
2023/07/24 04:36:55;;;;;;;3.72;1.67;;;19.10;99.90;;;;;;5053268;28;19974;-80
2023/07/24 04:39:47;;;;;;;3.10;1.65;;;19.00;99.90;;;;;;5038955;28;20045;-80
2023/07/24 04:42:36;;;;;;;2.47;1.77;;;19.00;99.90;;;;;;5020765;28;20053;-80
2023/07/24 04:45:25;;;;;;;3.83;2.03;;;19.10;99.90;;;;;;5043084;28;20101;-79
2023/07/24 04:48:10;;;;;;;2.80;1.80;;;19.10;99.90;;;;;;4996489;28;20643;-80
2023/07/24 04:50:59;;;;;;;4.13;1.52;;;19.10;99.90;;;;;;5024479;28;20048;-80
2023/07/24 04:53:48;;;;;;;2.97;1.60;;;19.10;99.90;;;;;;5041922;28;20133;-80
2023/07/24 04:56:51;;;;;;;3.25;2.05;;;19.00;99.90;;;;;;5039498;28;20036;-80
2023/07/24 04:59:53;;;;;;;2.90;1.48;;;19.00;99.90;;;;;;5050842;28;20044;-80
2023/07/24 05:02:41;;;;;;;3.53;1.95;;;19.00;99.90;;;;;;5021001;28;20772;-78
2023/07/24 05:05:27;;;;;;;3.05;1.67;;;19.00;99.90;;;;;;5055098;28;20036;-79
2023/07/24 05:08:21;;;;;;;2.40;1.55;;;18.90;99.90;;;;;;5012914;28;20037;-79
2023/07/24 05:11:16;;;;;;;2.85;1.80;;;19.00;99.90;;;;;;5016098;28;20047;-79
2023/07/24 05:14:05;;;;;;;2.97;1.55;;;19.10;99.90;;;;;;5051026;28;20119;-80
2023/07/24 05:16:51;;;;;;;3.03;1.55;;;19.10;99.90;;;;;;5057814;28;20048;-80
2023/07/24 05:19:37;;;;;;;3.00;1.90;;;19.10;99.90;;;;;;5034158;28;20040;-80
2023/07/24 05:22:27;;;;;;;6.35;1.85;;;19.20;99.90;;;;;;5076735;28;20044;-79
2023/07/24 05:25:15;;;;;;;2.97;1.70;;;19.20;99.90;;;;;;5052313;28;20036;-79
2023/07/24 05:28:31;;;;;;;4.60;2.22;;;19.30;99.90;;;;;;5063412;28;20059;-80
2023/07/24 05:31:19;;;;;;;3.60;1.90;;;19.30;99.90;;;;;;5044380;28;20071;-80
2023/07/24 05:34:05;;;;;;;;;;;19.30;99.90;;;;;;5025136;28;20041;-80
2023/07/24 05:36:59;;;;;;;2.13;1.67;;;19.40;99.90;;;;;;5043162;28;20011;-79
2023/07/24 05:39:53;;;;;;;3.40;1.70;;;19.40;99.90;;;;;;5027956;28;20063;-79
2023/07/24 05:42:47;;;;;;;3.13;1.63;;;19.40;99.90;;;;;;5028676;28;20052;-79
2023/07/24 05:45:45;;;;;;;3.85;1.98;;;19.40;99.90;;;;;;5054030;28;20037;-78
2023/07/24 05:48:33;;;;;;;3.60;1.80;;;19.40;99.90;;;;;;5007941;28;20467;-78
2023/07/24 05:51:35;;;;;;;4.53;2.20;;;19.50;99.90;;;;;;5022908;28;20052;-80
2023/07/24 05:54:21;;;;;;;3.60;1.90;;;19.50;99.90;;;;;;5050151;28;20087;-80
2023/07/24 05:57:31;;;;;;;3.13;1.60;;;19.50;99.90;;;;;;5028387;28;20048;-79
2023/07/24 06:00:23;;;;;;;4.18;1.63;;;19.60;99.90;;;;;;5047390;28;20041;-79
2023/07/24 06:03:32;;;;;;;7.43;2.00;;;19.70;99.90;;;;;;5049873;28;20044;-80
2023/07/24 06:06:18;;;;;;;4.70;1.95;;;19.70;99.90;;;;;;5030996;28;20429;-81
2023/07/24 06:09:04;;;;;;;3.15;1.77;;;19.80;99.90;;;;;;5024488;28;20033;-79
2023/07/24 06:11:55;;;;;;;4.03;2.15;;;19.80;99.90;;;;;;5044151;28;20048;-80
2023/07/24 06:14:41;;;;;;;3.35;1.80;;;19.90;99.90;;;;;;4999923;28;20053;-80
2023/07/24 06:17:27;;;;;;;2.92;2.05;;;19.90;99.90;;;;;;5026799;28;20052;-79
2023/07/24 06:20:33;;;;;;;4.75;2.25;;;19.90;99.90;;;;;;5063223;28;20711;-79
2023/07/24 06:23:28;;;;;;;3.72;2.30;;;19.90;99.90;;;;;;5061503;28;20137;-79
2023/07/24 06:26:18;;;;;;;3.53;2.42;;;19.80;99.90;;;;;;5030567;28;20040;-81
2023/07/24 06:29:11;;;;;;;3.35;2.03;;;19.90;99.90;;;;;;5045032;28;20102;-79
2023/07/24 06:32:20;;;;;;;3.83;2.10;;;19.90;99.90;;;;;;5046917;28;20041;-80
2023/07/24 06:35:14;;;;;;;3.95;2.28;;;19.90;99.90;;;;;;5053703;28;20114;-80
2023/07/24 06:38:13;;;;;;;3.70;2.42;;;19.90;99.90;;;;;;5064135;28;20044;-80
2023/07/24 06:41:02;;;;;;;5.28;2.13;;;19.90;99.90;;;;;;5039573;28;20151;-80
2023/07/24 06:43:56;;;;;;;3.58;2.17;;;19.90;99.90;;;;;;5029831;28;20051;-77
2023/07/24 06:46:52;;;;;;;6.53;2.28;;;19.90;99.90;;;;;;5047837;28;20788;-77
2023/07/24 06:49:40;;;;;;;3.50;2.00;;;20.00;99.90;;;;;;5028014;28;20116;-76
2023/07/24 06:52:26;;;;;;;4.93;2.10;;;20.10;99.90;;;;;;5025690;28;20037;-75
2023/07/24 06:55:21;;;;;;;3.65;2.35;;;20.20;99.90;;;;;;5017506;28;20053;-76
2023/07/24 06:58:07;;;;;;;5.22;2.33;;;20.20;99.90;;;;;;4994687;28;20049;-76
2023/07/24 07:01:22;;;;;;;3.70;2.55;;;20.30;99.90;;;;;;5004099;28;20056;-76
2023/07/24 07:04:08;;;;;;;4.18;2.50;;;20.30;99.90;;;;;;5003212;28;20038;-76
2023/07/24 07:07:19;;;;;;;5.35;2.38;;;20.40;99.90;;;;;;5002537;28;20053;-75
2023/07/24 07:10:07;;;;;;;5.35;2.40;;;20.40;99.90;;;;;;5010967;28;20088;-75
2023/07/24 07:12:53;;;;;;;3.20;2.30;;;20.40;99.90;;;;;;5012797;28;20048;-76
2023/07/24 07:15:39;;;;;;;5.00;2.28;;;20.50;99.90;;;;;;5033575;28;20056;-75
2023/07/24 07:18:25;;;;;;;5.53;2.30;;;20.50;99.90;;;;;;5027370;28;20052;-76
2023/07/24 07:21:19;;;;;;;4.10;2.20;;;20.50;99.90;;;;;;5026165;28;20060;-76
2023/07/24 07:24:19;;;;;;;4.55;2.65;;;20.60;99.90;;;;;;5023631;28;20033;-76
2023/07/24 07:27:08;;;;;;;6.18;2.20;;;20.60;99.90;;;;;;5027263;28;20063;-76
2023/07/24 07:30:14;;;;;;;3.85;2.42;;;20.60;99.90;;;;;;5040754;28;20438;-76
2023/07/24 07:33:05;;;;;;;5.13;2.42;;;20.60;99.90;;;;;;5020831;28;20697;-77
2023/07/24 07:35:51;;;;;;;6.03;2.10;;;20.70;99.90;;;;;;5020091;28;20041;-77
2023/07/24 07:38:39;;;;;;;5.28;2.40;;;20.70;99.90;;;;;;5024364;28;20037;-76
2023/07/24 07:41:25;;;;;;;3.92;2.20;;;20.70;99.90;;;;;;4999702;28;20067;-76
2023/07/24 07:44:11;;;;;;;4.03;2.53;;;20.80;99.90;;;;;;5017257;28;20041;-76
2023/07/24 07:46:57;;;;;;;6.20;2.40;;;20.90;99.90;;;;;;5039511;28;20033;-79
2023/07/24 07:49:43;;;;;;;6.15;2.40;;;21.20;99.90;;;;;;5011940;28;20051;-79
2023/07/24 07:52:29;;;;;;;3.08;2.30;;;21.30;99.90;;;;;;5005383;28;20113;-79
2023/07/24 07:55:15;;;;;;;3.92;2.45;;;21.30;99.90;;;;;;5013199;28;20085;-79
2023/07/24 07:58:01;;;;;;;6.32;2.90;;;21.30;99.90;;;;;;5001293;28;20045;-79
2023/07/24 08:00:47;;;;;;;4.70;2.65;;;21.30;99.90;;;;;;5031918;28;20045;-78
2023/07/24 08:03:34;;;;;;;6.95;2.60;;;21.30;99.90;;;;;;5031279;28;20044;-78
2023/07/24 08:06:21;;;;;;;6.05;2.83;;;21.40;99.90;;;;;;5026185;28;20048;-77
2023/07/24 08:09:07;;;;;;;4.75;2.88;;;21.40;99.90;;;;;;5036076;28;20080;-78
2023/07/24 08:11:53;;;;;;;5.40;2.60;;;21.50;99.90;;;;;;5020442;28;20055;-78
2023/07/24 08:14:40;;;;;;;6.72;2.50;;;21.50;99.90;;;;;;4996969;28;20441;-78
2023/07/24 08:17:26;;;;;;;6.05;2.85;;;21.50;99.90;;;;;;5005659;28;20048;-79
2023/07/24 08:20:12;;;;;;;4.55;2.72;;;21.60;99.90;;;;;;5021325;28;20044;-77
2023/07/24 08:22:58;;;;;;;5.10;3.00;;;21.70;99.90;;;;;;5020943;28;20087;-79
2023/07/24 08:25:54;;;;;;;7.10;3.33;;;21.90;99.90;;;;;;5024839;28;20072;-79
2023/07/24 08:28:42;;;;;;;5.95;3.17;;;22.10;99.90;;;;;;5002189;28;20033;-79
2023/07/24 08:31:29;;;;;;;;;;;22.30;99.90;;;;;;5008846;28;20041;-79
2023/07/24 08:34:15;;;;;;;5.35;3.30;;;22.30;99.90;;;;;;5005691;28;19909;-80
2023/07/24 08:37:03;;;;;;;5.53;3.40;;;22.40;99.90;;;;;;5020278;28;20166;-80
2023/07/24 08:39:49;;;;;;;5.78;3.20;;;22.40;99.90;;;;;;5006658;28;20098;-79
2023/07/24 08:42:35;;;;;;;5.50;3.40;;;22.40;99.90;;;;;;5015570;28;20041;-78
2023/07/24 08:45:24;;;;;;;5.35;3.35;;;22.40;99.80;;;;;;5040856;28;20044;-78
2023/07/24 08:48:10;;;;;;;6.60;3.13;;;22.40;99.90;;;;;;4986962;28;20033;-78
2023/07/24 08:50:56;;;;;;;4.22;2.85;;;22.50;99.90;;;;;;5011113;28;20044;-80
2023/07/24 08:53:43;;;;;;;6.57;3.13;;;22.50;99.90;;;;;;5013504;28;20137;-79
2023/07/24 08:56:29;;;;;;;4.93;3.23;;;22.40;99.90;;;;;;5045091;28;20040;-79
2023/07/24 08:59:15;;;;;;;7.35;3.13;;;22.30;99.70;;;;;;5040260;28;20759;-78
2023/07/24 09:02:01;;;;;;;5.40;3.28;;;22.20;99.90;;;;;;5024684;28;20055;-79
2023/07/24 09:04:47;;;;;;;8.13;3.28;;;22.10;99.90;;;;;;5052726;28;20033;-78
2023/07/24 09:07:33;;;;;;;7.20;3.70;;;22.00;99.90;;;;;;5045905;28;20036;-78
2023/07/24 09:10:25;;;;;;;6.93;3.67;;;21.30;99.90;;;;;;5048981;28;20040;-78
2023/07/24 09:13:12;;;;;;;5.22;3.22;;;20.60;99.90;;;;;;5034650;28;20084;-78
2023/07/24 09:15:59;;;;;;;6.60;3.55;;;20.40;99.90;;;;;;5026833;28;20523;-77
2023/07/24 09:18:45;;;;;;;5.53;3.22;;;20.50;99.90;;;;;;5026453;28;20045;-77
2023/07/24 09:21:31;;;;;;;4.40;3.03;;;20.70;99.90;;;;;;5000942;28;20049;-78
2023/07/24 09:24:17;;;;;;;5.93;3.10;;;20.70;99.90;;;;;;5047928;28;20098;-78
2023/07/24 09:27:05;;;;;;;5.35;2.97;;;20.90;99.90;;;;;;5058148;28;20041;-78
2023/07/24 09:29:51;;;;;;;;;;;21.20;99.90;;;;;;5055194;28;20070;-80
2023/07/24 09:32:37;;;;;;;5.07;2.75;;;21.10;99.90;;;;;;5028711;28;20317;-78
2023/07/24 09:35:27;;;;;;;5.35;2.65;;;21.10;99.90;;;;;;5030986;28;20119;-77
2023/07/24 09:38:13;;;;;;;4.25;2.00;;;21.10;99.90;;;;;;5037607;28;20749;-78
2023/07/24 09:41:01;;;;;;;3.28;2.45;;;21.20;99.90;;;;;;5032713;28;20045;-78
2023/07/24 09:43:47;;;;;;;4.85;3.15;;;21.40;99.90;;;;;;5039293;28;20071;-78
2023/07/24 09:46:33;;;;;;;4.30;2.80;;;21.40;99.90;;;;;;5040066;28;20173;-79
2023/07/24 09:49:19;;;;;;;3.38;2.25;;;21.60;99.90;;;;;;5039481;28;20469;-78
2023/07/24 09:52:07;;;;;;;4.45;2.60;;;21.50;99.90;;;;;;5040434;28;20044;-78
2023/07/24 09:55:09;;;;;;;3.33;2.30;;;21.40;99.90;;;;;;5055678;28;20370;-78
2023/07/24 09:57:55;;;;;;;3.22;2.30;;;21.30;99.90;;;;;;5042119;28;20464;-78
2023/07/24 10:00:41;;;;;;;6.05;2.60;;;21.20;99.90;;;;;;5039937;28;20040;-78
2023/07/24 10:03:27;;;;;;;5.13;2.53;;;21.10;99.90;;;;;;5032169;28;20041;-77
2023/07/24 10:06:14;;;;;;;3.67;2.35;;;21.10;99.90;;;;;;5019207;28;20049;-73
2023/07/24 10:09:00;;;;;;;3.13;2.17;;;21.20;99.90;;;;;;5045568;28;20032;-74
2023/07/24 10:11:47;;;;;;;4.03;2.47;;;21.20;99.90;;;;;;5054197;28;20298;-75
2023/07/24 10:14:33;;;;;;;3.33;2.58;;;21.40;99.90;;;;;;5025136;28;20381;-75
2023/07/24 10:17:36;;;;;;;3.53;2.45;;;21.50;99.90;;;;;;5033473;28;20136;-76
2023/07/24 10:20:22;;;;;;;5.13;2.67;;;21.70;99.90;;;;;;5041121;28;20367;-77
2023/07/24 10:23:10;;;;;;;3.80;2.60;;;21.80;99.90;;;;;;5058578;28;20131;-75
2023/07/24 10:25:55;;;;;;;3.28;2.30;;;21.80;99.90;;;;;;5018569;28;20041;-76
2023/07/24 10:28:42;;;;;;;3.78;2.25;;;21.80;99.90;;;;;;5031916;28;20353;-76
2023/07/24 10:31:28;;;;;;;2.88;2.17;;;21.70;99.90;;;;;;5037021;28;20040;-77
2023/07/24 10:34:14;;;;;;;5.13;2.20;;;21.70;99.90;;;;;;5037982;28;20051;-76
2023/07/24 10:37:04;;;;;;;2.72;2.10;;;21.80;99.90;;;;;;5025628;28;20556;-75
2023/07/24 10:39:50;;;;;;;2.90;1.90;;;21.90;99.90;;;;;;5038989;28;20047;-75
2023/07/24 10:42:39;;;;;;;4.55;1.85;;;21.90;99.90;;;;;;5051483;28;20481;-75
2023/07/24 10:45:26;;;;;;;3.85;2.13;;;22.00;99.90;;;;;;5036925;28;20067;-75
2023/07/24 10:48:12;;;;;;;2.55;1.60;;;22.00;99.90;;;;;;5005941;28;20061;-75
2023/07/24 10:50:58;;;;;;;2.80;1.88;;;22.20;99.90;;;;;;5044846;28;20032;-76
2023/07/24 10:53:53;;;;;;;2.30;1.55;;;22.10;99.90;;;;;;5060984;28;20526;-76
2023/07/24 10:56:39;;;;;;;3.35;1.58;;;22.40;99.90;;;;;;5030676;28;20041;-75
2023/07/24 10:59:39;;;;;;;2.40;1.45;;;22.50;99.90;;;;;;5036128;28;20075;-75
2023/07/24 11:02:31;;;;;;;2.90;1.20;;;22.70;99.90;;;;;;5060047;28;20040;-75
2023/07/24 11:05:19;;;;;;;2.60;1.42;;;22.90;99.80;;;;;;5057204;28;20040;-75
2023/07/24 11:08:15;;;;;;;3.00;1.63;;;22.80;99.80;;;;;;5060645;28;20064;-75
2023/07/24 11:11:01;;;;;;;2.08;1.30;;;22.70;99.90;;;;;;5009006;28;20378;-75
2023/07/24 11:13:47;;;;;;;2.78;1.60;;;22.70;99.90;;;;;;5007919;28;20037;-75
2023/07/24 11:16:33;;;;;;;3.17;1.88;;;22.90;99.90;;;;;;5046305;28;20093;-76
2023/07/24 11:19:24;;;;;;;4.15;1.85;;;23.20;99.90;;;;;;5044141;28;20397;-75
2023/07/24 11:22:11;;;;;;;2.80;1.75;;;23.40;99.30;;;;;;5049759;28;20052;-76
2023/07/24 11:24:57;;;;;;;4.13;1.80;;;23.70;99.60;;;;;;5040230;28;20047;-76
2023/07/24 11:27:44;;;;;;;3.83;1.63;;;23.90;98.50;;;;;;5032086;28;20045;-76
2023/07/24 11:30:29;;;;;;;2.38;1.60;;;24.20;97.90;;;;;;5042762;28;20075;-76
2023/07/24 11:33:16;;;;;;;3.25;1.92;;;24.60;98.00;;;;;;5031885;28;20066;-80
2023/07/24 11:36:02;;;;;;;3.75;1.90;;;24.20;97.30;;;;;;5043476;28;20040;-80
2023/07/24 11:38:48;;;;;;;2.63;1.92;;;24.40;98.10;;;;;;5047128;28;20211;-80
2023/07/24 11:41:34;;;;;;;3.65;1.90;;;24.20;97.40;;;;;;5012381;28;20041;-80
2023/07/24 11:44:29;;;;;;;3.22;1.80;;;24.10;97.80;;;;;;5012509;28;20369;-80
2023/07/24 11:47:16;;;;;;;2.92;1.92;;;23.90;97.20;;;;;;5025436;28;20761;-79
2023/07/24 11:50:02;;;;;;;2.38;1.80;;;23.90;97.10;;;;;;5051132;28;20044;-79
2023/07/24 11:52:48;;;;;;;3.67;2.00;;;24.00;97.00;;;;;;5028595;28;20127;-79
2023/07/24 11:55:34;;;;;;;3.83;2.08;;;24.20;96.40;;;;;;5030305;28;20056;-80
2023/07/24 11:58:21;;;;;;;4.60;2.13;;;24.10;96.20;;;;;;5023409;28;20049;-79
2023/07/24 12:01:07;;;;;;;3.28;2.05;;;24.40;95.90;;;;;;5036777;28;20083;-79
2023/07/24 12:03:53;;;;;;;2.47;1.70;;;24.60;95.20;;;;;;4992813;28;20042;-79
2023/07/24 12:06:39;;;;;;;4.88;2.20;;;24.60;95.60;;;;;;5014507;28;20033;-79
2023/07/24 12:09:30;;;;;;;3.20;1.98;;;25.10;95.20;;;;;;5014958;28;20359;-79
2023/07/24 12:12:17;;;;;;;3.10;2.08;;;25.00;94.60;;;;;;5005924;28;20071;-79
2023/07/24 12:15:04;;;;;;;4.30;2.30;;;24.80;94.40;;;;;;4993549;28;20042;-79
2023/07/24 12:17:50;;;;;;;3.00;2.10;;;24.80;94.40;;;;;;4991153;28;20241;-80
2023/07/24 12:20:36;;;;;;;2.88;2.33;;;25.00;93.90;;;;;;4992209;28;20046;-79
2023/07/24 12:23:22;;;;;;;3.30;2.40;;;24.90;94.00;;;;;;5006033;28;20519;-80
2023/07/24 12:26:08;;;;;;;3.58;2.45;;;25.00;94.20;;;;;;5005767;28;20153;-79
2023/07/24 12:28:54;;;;;;;6.22;2.58;;;25.10;93.70;;;;;;4991431;28;20057;-79
2023/07/24 12:31:41;;;;;;;5.07;2.90;;;25.10;93.50;;;;;;5010795;28;20148;-79
2023/07/24 12:34:27;;;;;;;5.18;2.55;;;24.90;95.10;;;;;;4990490;28;20778;-79
2023/07/24 12:37:13;;;;;;;3.30;2.60;;;24.90;95.90;;;;;;5029828;28;20091;-78
2023/07/24 12:40:02;;;;;;;4.93;2.50;;;24.90;95.90;;;;;;5023367;28;20090;-79
2023/07/24 12:42:48;;;;;;;4.50;2.50;;;25.30;95.80;;;;;;5011277;28;20042;-79
2023/07/24 12:45:34;;;;;;;5.03;2.53;;;25.40;95.00;;;;;;5025771;28;20071;-79
2023/07/24 12:48:21;;;;;;;4.85;2.67;;;25.30;95.60;;;;;;5031020;28;20163;-78
2023/07/24 12:51:07;;;;;;;3.20;2.50;;;25.20;95.00;;;;;;5007374;28;20034;-79
2023/07/24 12:53:55;;;;;;;4.25;2.70;;;24.70;94.50;;;;;;5002590;28;20045;-79
2023/07/24 12:56:41;;;;;;;3.30;2.45;;;24.90;95.00;;;;;;5017809;28;20095;-79
2023/07/24 12:59:27;;;;;;;4.60;2.50;;;25.10;94.40;;;;;;5002976;28;20050;-79
2023/07/24 13:02:13;;;;;;;3.17;2.20;;;25.20;93.40;;;;;;5015433;28;20055;-79
2023/07/24 13:04:59;;;;;;;3.42;2.45;;;24.90;93.60;;;;;;5014901;28;20037;-78
2023/07/24 13:07:46;;;;;;;4.18;2.50;;;24.60;93.50;;;;;;5014009;28;20036;-79
2023/07/24 13:10:32;;;;;;;4.13;2.50;;;24.50;93.60;;;;;;4990977;28;20413;-78
2023/07/24 13:13:19;;;;;;;4.38;2.45;;;24.50;93.00;;;;;;5008497;28;20794;-79
2023/07/24 13:16:05;;;;;;;4.80;2.40;;;24.40;93.40;;;;;;5018186;28;20045;-80
2023/07/24 13:18:51;;;;;;;4.18;2.80;;;24.30;93.00;;;;;;5003245;28;20425;-79
2023/07/24 13:21:39;;;;;;;3.88;2.55;;;24.20;93.10;;;;;;5003595;28;20458;-79
2023/07/24 13:24:25;;;;;;;6.00;2.47;;;24.10;93.50;;;;;;5005975;28;20030;-79
2023/07/24 13:27:11;;;;;;;5.47;3.10;;;24.10;94.70;;;;;;5010226;28;20274;-79
2023/07/24 13:29:57;;;;;;;5.68;3.33;;;23.50;97.70;;;;;;5028645;28;20072;-79
2023/07/24 13:32:43;;;;;;;4.95;3.28;;;22.80;99.80;;;;;;5024733;28;20108;-79
2023/07/24 13:35:29;;;;;;;4.63;3.60;;;22.70;99.90;;;;;;5026214;28;20115;-77
2023/07/24 13:38:16;;;;;;;4.47;3.50;;;22.50;99.90;;;;;;5037264;28;20516;-76
2023/07/24 13:41:02;;;;;;;4.28;3.58;;;22.30;99.90;;;;;;4996587;28;20511;-76
2023/07/24 13:43:48;;;;;;;6.43;3.70;;;22.20;99.90;;;;;;5021032;28;20040;-79
2023/07/24 13:46:35;;;;;;;5.32;4.07;;;22.20;99.90;;;;;;5025962;28;20110;-79
2023/07/24 13:49:20;;;;;;;5.10;3.90;;;22.10;99.90;;;;;;5031730;28;20469;-79
2023/07/24 13:52:07;;;;;;;7.85;4.55;;;22.10;99.90;;;;;;5022511;28;20048;-79
2023/07/24 13:54:52;;;;;;;6.07;4.38;;;22.20;99.90;;;;;;5034553;28;20116;-79
2023/07/24 13:57:38;;;;;;;8.27;4.72;;;22.30;99.90;;;;;;5012653;28;20100;-79
2023/07/24 14:00:24;;;;;;;5.10;4.10;;;22.30;99.90;;;;;;4976751;28;20099;-79
2023/07/24 14:03:12;;;;;;;4.25;3.85;;;22.20;99.90;;;;;;4988237;28;20088;-79
2023/07/24 14:05:59;;;;;;;10.15;4.45;;;22.10;99.90;;;;;;5021922;28;20093;-78
2023/07/24 14:08:45;;;;;;;6.32;3.92;;;22.10;99.90;;;;;;5027991;28;20043;-80
2023/07/24 14:15:17;;;;;;;6.07;3.63;;;22.40;99.90;;;;;;5037519;28;20039;-80
2023/07/24 14:18:03;;;;;;;5.32;3.63;;;22.40;99.90;;;;;;5042532;28;20558;-80
2023/07/24 14:20:52;;;;;;;4.28;3.08;;;22.30;99.90;;;;;;5043550;28;20508;-80
2023/07/24 14:23:39;;;;;;;4.43;2.80;;;22.50;99.90;;;;;;5018255;28;20042;-80
2023/07/24 14:26:25;;;;;;;5.18;3.13;;;22.50;99.90;;;;;;4976637;28;20030;-80
2023/07/24 14:29:11;;;;;;;3.58;2.80;;;22.40;99.90;;;;;;5028123;28;20037;-80
2023/07/24 14:31:57;;;;;;;4.57;2.50;;;22.80;99.90;;;;;;5005446;28;20057;-79
2023/07/24 14:34:43;;;;;;;3.83;2.70;;;23.00;99.90;;;;;;5007316;28;20061;-81
2023/07/24 14:37:29;;;;;;;4.40;2.55;;;22.90;99.90;;;;;;5039051;28;20047;-80
2023/07/24 14:40:15;;;;;;;5.38;2.92;;;22.80;99.90;;;;;;5021193;28;20086;-79
2023/07/24 14:43:01;;;;;;;5.90;2.80;;;22.60;99.90;;;;;;5029146;28;20049;-80
2023/07/24 14:45:48;;;;;;;5.30;2.97;;;22.40;99.90;;;;;;5022724;28;20037;-80
2023/07/24 14:48:34;;;;;;;3.73;2.70;;;22.50;99.90;;;;;;5020615;28;20034;-80
2023/07/24 14:51:20;;;;;;;4.10;2.95;;;22.30;99.90;;;;;;5019938;28;20037;-80
2023/07/24 14:54:06;;;;;;;3.58;2.75;;;22.10;99.90;;;;;;5019233;28;20515;-80
2023/07/24 14:56:56;;;;;;;3.22;2.45;;;22.00;99.90;;;;;;5047173;28;20048;-80